This is the latest recevied weather packets stored in our database for station/object TG9SRP-22. If no packets are shown the sender has not sent any weather packets the latest 10 day(s).
| Time | Temp. | Humidity | Pressure | Rain* | Wind** | Luminosity | Snow |
|---|---|---|---|---|---|---|---|
| 1777655048 | 21.67° C | 57% | 1012 hPa | 0 mm | - | - | - |
| 1777654447 | 22.22° C | 57% | 1012 hPa | 0 mm | - | - | - |
| 1777653846 | 22.22° C | 57% | 1012 hPa | 0 mm | - | - | - |
| 1777653246 | 22.22° C | 57% | 1012 hPa | 0 mm | - | - | - |
| 1777652645 | 22.22° C | 57% | 1013 hPa | 0 mm | - | - | - |
| 1777652045 | 22.22° C | 57% | 1013 hPa | 0 mm | - | - | - |
| 1777651444 | 22.22° C | 57% | 1013 hPa | 0 mm | - | - | - |
| 1777650843 | 21.11° C | 60% | 1013 hPa | 0 mm | - | - | - |
| 1777650243 | 21.11° C | 60% | 1013 hPa | 0 mm | - | - | - |
| 1777649642 | 21.11° C | 60% | 1013 hPa | 0 mm | - | - | - |
| 1777649041 | 21.11° C | 60% | 1013 hPa | 0 mm | - | - | - |
| 1777648441 | 20° C | 60% | 1013 hPa | 0 mm | - | - | - |
| 1777647840 | 21.11° C | 60% | 1013 hPa | 0 mm | - | - | - |
| 1777647240 | 18.89° C | 73% | 1013 hPa | 0 mm | - | - | - |
| 1777646639 | 18.33° C | 77% | 1013 hPa | 0 mm | - | - | - |
| 1777646038 | 18.33° C | 77% | 1013 hPa | 0 mm | - | - | - |
| 1777645438 | 18.33° C | 73% | 1013 hPa | 0 mm | - | - | - |
| 1777644837 | 18.89° C | 73% | 1013 hPa | 0 mm | - | - | - |
| 1777644236 | 18.33° C | 83% | 1013 hPa | 0 mm | - | - | - |
| 1777643636 | 18.33° C | 83% | 1013 hPa | 0 mm | - | - | - |
| 1777643035 | 18.33° C | 83% | 1014 hPa | 0 mm | - | - | - |
| 1777642435 | 18.33° C | 83% | 1014 hPa | 0 mm | - | - | - |
| 1777641834 | 15.56° C | 85% | 1014 hPa | 0 mm | - | - | - |
| 1777641233 | 15.56° C | 85% | 1014 hPa | 0 mm | - | - | - |
| 1777640633 | 16.67° C | 84% | 1014 hPa | 0 mm | - | - | - |
* Rain latest hour (hover to see other rain measurements)
** Current wind speed in m/s (hover to see current wind gust speed)